createdAt,value
2018-10-02T00:02:02.786Z,8.50
2018-10-02T00:04:31.850Z,8.40
2018-10-02T00:07:00.937Z,8.30
2018-10-02T00:09:29.985Z,8.30
2018-10-02T00:12:04.462Z,8.20
2018-10-02T00:14:33.520Z,8.20
2018-10-02T00:17:02.665Z,8.30
2018-10-02T00:19:32.353Z,8.40
2018-10-02T00:22:01.520Z,8.20
2018-10-02T00:24:30.577Z,8.20
2018-10-02T00:26:59.651Z,8.20
2018-10-02T00:29:28.697Z,8.30
2018-10-02T00:31:58.020Z,8.10
2018-10-02T00:34:27.053Z,8.10
2018-10-02T00:36:56.137Z,8.00
2018-10-02T00:39:25.212Z,7.90
2018-10-02T00:41:54.383Z,7.80
2018-10-02T00:44:23.465Z,8.00
2018-10-02T00:46:52.598Z,8.10
2018-10-02T00:49:21.691Z,7.90
2018-10-02T00:51:50.889Z,8.00
2018-10-02T00:54:19.998Z,7.80
2018-10-02T00:56:49.146Z,7.80
2018-10-02T00:59:18.241Z,7.90
2018-10-02T01:01:47.370Z,8.00
2018-10-02T01:04:16.471Z,8.10
2018-10-02T01:06:45.598Z,8.10
2018-10-02T01:09:14.690Z,8.00
2018-10-02T01:11:43.945Z,7.90
2018-10-02T01:14:13.439Z,7.80
2018-10-02T01:16:42.558Z,7.70
2018-10-02T01:19:11.700Z,7.80
2018-10-02T01:21:40.802Z,8.00
2018-10-02T01:24:09.964Z,8.10
2018-10-02T01:26:39.320Z,8.10
2018-10-02T01:29:08.471Z,8.00
2018-10-02T01:31:37.561Z,7.90
2018-10-02T01:34:07.635Z,8.00
2018-10-02T01:36:36.715Z,8.00
2018-10-02T01:39:07.007Z,8.00
2018-10-02T01:41:36.112Z,8.00
2018-10-02T01:44:05.294Z,7.90
2018-10-02T01:46:34.382Z,7.90
2018-10-02T01:49:03.538Z,7.80
2018-10-02T01:51:32.690Z,7.50
2018-10-02T01:54:01.803Z,7.50
2018-10-02T01:56:30.894Z,7.40
2018-10-02T01:59:00.024Z,7.40
2018-10-02T02:01:29.243Z,7.60
2018-10-02T02:03:58.359Z,7.30
2018-10-02T02:06:27.459Z,7.40
2018-10-02T02:08:56.579Z,7.40
2018-10-02T02:11:25.674Z,7.40
2018-10-02T02:13:54.789Z,7.40
2018-10-02T02:16:23.911Z,7.40
2018-10-02T02:18:53.036Z,7.20
2018-10-02T02:21:22.150Z,7.30
2018-10-02T02:23:51.275Z,7.00
2018-10-02T02:26:20.431Z,6.90
2018-10-02T02:28:49.803Z,6.90
2018-10-02T02:31:19.042Z,7.10
2018-10-02T02:33:48.154Z,7.10
2018-10-02T02:36:17.243Z,6.90
2018-10-02T02:38:46.358Z,7.10
2018-10-02T02:41:15.435Z,7.20
2018-10-02T02:43:44.504Z,7.20
2018-10-02T02:46:13.681Z,7.20
2018-10-02T02:48:48.095Z,7.10
2018-10-02T02:51:22.443Z,7.00
2018-10-02T02:53:51.565Z,6.80
2018-10-02T02:56:20.608Z,6.60
2018-10-02T02:58:49.739Z,6.80
2018-10-02T03:01:18.808Z,6.80
2018-10-02T03:03:47.904Z,6.70
2018-10-02T03:06:16.982Z,6.70
2018-10-02T03:08:46.173Z,6.30
2018-10-02T03:11:15.246Z,6.30
2018-10-02T03:13:44.311Z,6.20
2018-10-02T03:16:13.479Z,6.40
2018-10-02T03:18:42.539Z,6.50
2018-10-02T03:21:11.599Z,6.50
2018-10-02T03:23:40.665Z,6.20
2018-10-02T03:26:09.807Z,6.30
2018-10-02T03:28:38.849Z,6.40
2018-10-02T03:31:08.067Z,6.30
2018-10-02T03:33:37.114Z,6.30
2018-10-02T03:36:06.290Z,6.40
2018-10-02T03:38:35.526Z,6.30
2018-10-02T03:41:05.458Z,6.20
2018-10-02T03:43:35.683Z,6.20
2018-10-02T03:46:06.130Z,6.20
2018-10-02T03:48:35.188Z,6.40
2018-10-02T03:51:04.251Z,6.40
2018-10-02T03:53:33.449Z,6.20
2018-10-02T03:56:02.595Z,6.10
2018-10-02T03:58:31.622Z,6.40
2018-10-02T04:01:00.690Z,6.40
2018-10-02T04:03:29.751Z,6.40
2018-10-02T04:05:58.819Z,6.40
2018-10-02T04:08:27.848Z,6.00
2018-10-02T04:10:57.082Z,6.10
2018-10-02T04:13:26.107Z,6.20
2018-10-02T04:15:55.166Z,6.00
2018-10-02T04:18:24.204Z,6.10
2018-10-02T04:20:53.372Z,6.00
2018-10-02T04:23:22.361Z,5.90
2018-10-02T04:25:51.458Z,5.80
2018-10-02T04:28:20.569Z,5.80
2018-10-02T04:30:49.739Z,6.00
2018-10-02T04:33:18.782Z,6.00
2018-10-02T04:35:47.834Z,6.10
2018-10-02T04:38:16.874Z,6.10
2018-10-02T04:40:46.126Z,6.00
2018-10-02T04:43:15.158Z,6.10
2018-10-02T04:45:44.218Z,6.10
2018-10-02T04:48:13.295Z,5.80
2018-10-02T04:50:42.447Z,5.80
2018-10-02T04:53:11.498Z,5.80
2018-10-02T04:55:40.616Z,5.80
2018-10-02T04:58:09.645Z,5.40
2018-10-02T05:00:38.755Z,5.40
2018-10-02T05:03:07.822Z,5.30
2018-10-02T05:05:36.870Z,5.20
2018-10-02T05:08:06.173Z,5.20
2018-10-02T05:10:35.226Z,5.40
2018-10-02T05:13:04.312Z,5.60
2018-10-02T05:15:33.358Z,5.70
2018-10-02T05:18:02.421Z,5.40
2018-10-02T05:20:31.487Z,5.30
2018-10-02T05:23:00.642Z,5.20
2018-10-02T05:25:29.680Z,5.20
2018-10-02T05:27:58.726Z,5.40
2018-10-02T05:30:27.906Z,5.20
2018-10-02T05:32:57.041Z,5.30
2018-10-02T05:35:26.107Z,5.40
2018-10-02T05:37:55.162Z,5.30
2018-10-02T05:40:24.307Z,5.30
2018-10-02T05:42:53.462Z,5.30
2018-10-02T05:45:22.458Z,5.20
2018-10-02T05:47:51.531Z,5.10
2018-10-02T05:50:20.576Z,5.00
2018-10-02T05:52:49.638Z,4.90
2018-10-02T05:55:18.667Z,5.20
2018-10-02T05:57:47.804Z,5.20
2018-10-02T06:00:16.858Z,5.40
2018-10-02T06:02:45.957Z,5.50
2018-10-02T06:05:15.066Z,5.60
2018-10-02T06:07:44.115Z,5.60
2018-10-02T06:10:13.166Z,5.50
2018-10-02T06:12:42.259Z,5.70
2018-10-02T06:15:11.304Z,5.80
2018-10-02T06:17:40.367Z,5.60
2018-10-02T06:20:09.414Z,5.60
2018-10-02T06:22:38.470Z,5.80
2018-10-02T06:25:07.550Z,6.00
2018-10-02T06:27:36.600Z,6.00
2018-10-02T06:30:06.006Z,5.90
2018-10-02T06:32:35.082Z,5.60
2018-10-02T06:35:04.189Z,5.60
2018-10-02T06:37:33.269Z,5.50
2018-10-02T06:40:02.328Z,5.60
2018-10-02T06:42:31.416Z,5.90
2018-10-02T06:45:00.527Z,6.10
2018-10-02T06:47:29.554Z,6.40
2018-10-02T06:49:58.690Z,6.30
2018-10-02T06:52:27.859Z,6.70
2018-10-02T06:54:56.834Z,6.60
2018-10-02T06:57:25.864Z,6.60
2018-10-02T06:59:54.962Z,7.00
2018-10-02T07:02:24.003Z,7.60
2018-10-02T07:04:53.055Z,7.80
2018-10-02T07:07:22.095Z,8.20
2018-10-02T07:09:51.138Z,8.50
2018-10-02T07:12:20.174Z,8.40
2018-10-02T07:14:49.285Z,8.70
2018-10-02T07:17:18.355Z,9.10
2018-10-02T07:19:47.539Z,9.20
2018-10-02T07:22:16.595Z,9.80
2018-10-02T07:24:45.653Z,9.80
2018-10-02T07:27:14.896Z,10.40
2018-10-02T07:29:43.926Z,10.70
2018-10-02T07:32:13.059Z,10.90
2018-10-02T07:34:42.135Z,11.10
2018-10-02T07:37:11.498Z,11.00
2018-10-02T07:39:40.707Z,11.30
2018-10-02T07:42:09.852Z,11.10
2018-10-02T07:44:38.980Z,10.70
2018-10-02T07:47:08.014Z,10.30
2018-10-02T07:49:37.074Z,10.30
2018-10-02T07:52:06.168Z,10.60
2018-10-02T07:54:35.231Z,10.20
2018-10-02T07:57:04.390Z,10.30
2018-10-02T07:59:33.500Z,10.10
2018-10-02T08:02:02.570Z,10.60
2018-10-02T08:04:31.647Z,10.80
2018-10-02T08:07:00.691Z,10.80
2018-10-02T08:09:29.878Z,11.00
2018-10-02T08:11:58.975Z,11.10
2018-10-02T08:14:28.024Z,11.70
2018-10-02T08:16:57.110Z,12.10
2018-10-02T08:19:26.203Z,12.70
2018-10-02T08:21:55.263Z,13.10
2018-10-02T08:24:24.351Z,13.60
2018-10-02T08:26:53.467Z,13.70
2018-10-02T08:29:22.640Z,13.60
2018-10-02T08:31:51.659Z,14.00
2018-10-02T08:34:20.702Z,14.20
2018-10-02T08:36:49.786Z,14.20
2018-10-02T08:39:19.050Z,14.20
2018-10-02T08:41:48.278Z,14.00
2018-10-02T08:44:17.343Z,14.50
2018-10-02T08:46:46.464Z,14.60
2018-10-02T08:49:15.656Z,15.00
2018-10-02T08:51:44.833Z,14.80
2018-10-02T08:54:13.927Z,14.90
2018-10-02T08:56:43.051Z,14.70
2018-10-02T08:59:12.179Z,14.10
2018-10-02T09:01:41.315Z,13.90
2018-10-02T09:04:10.419Z,13.40
2018-10-02T09:06:39.571Z,14.40
2018-10-02T09:09:10.699Z,14.60
2018-10-02T09:11:39.835Z,14.10
2018-10-02T09:14:09.194Z,14.30
2018-10-02T09:16:38.461Z,15.00
2018-10-02T09:19:07.908Z,15.90
2018-10-02T09:21:37.128Z,16.20
2018-10-02T09:24:06.222Z,15.70
2018-10-02T09:26:35.358Z,15.60
2018-10-02T09:29:04.696Z,15.50
2018-10-02T09:31:39.137Z,14.90
2018-10-02T09:34:13.528Z,14.60
2018-10-02T09:36:48.028Z,15.30
2018-10-02T09:39:22.385Z,15.30
2018-10-02T09:41:56.950Z,16.00
2018-10-02T09:44:26.047Z,16.30
2018-10-02T09:46:55.166Z,17.20
2018-10-02T09:49:24.282Z,17.30
2018-10-02T09:51:53.443Z,17.00
2018-10-02T09:54:22.584Z,16.20
2018-10-02T09:56:51.730Z,16.30
2018-10-02T09:59:20.779Z,16.90
2018-10-02T10:01:55.204Z,17.20
2018-10-02T10:04:24.350Z,17.40
2018-10-02T10:06:53.459Z,18.00
2018-10-02T10:09:22.564Z,18.10
2018-10-02T10:11:51.743Z,18.10
2018-10-02T10:14:20.899Z,18.10
2018-10-02T10:16:50.189Z,18.00
2018-10-02T10:19:19.175Z,18.20
2018-10-02T10:21:48.311Z,17.90
2018-10-02T10:24:17.411Z,18.10
2018-10-02T10:26:46.530Z,18.50
2018-10-02T10:29:15.639Z,18.60
2018-10-02T10:31:44.763Z,18.30
2018-10-02T10:34:13.886Z,18.40
2018-10-02T10:36:43.025Z,17.90
2018-10-02T10:39:12.249Z,17.20
2018-10-02T10:41:41.363Z,17.30
2018-10-02T10:44:10.403Z,17.00
2018-10-02T10:46:39.454Z,16.90
2018-10-02T10:49:08.586Z,17.70
2018-10-02T10:51:37.627Z,18.10
2018-10-02T10:54:06.722Z,18.20
2018-10-02T10:56:35.850Z,18.00
2018-10-02T10:59:05.124Z,17.80
2018-10-02T11:01:34.031Z,17.90
2018-10-02T11:04:03.108Z,18.50
2018-10-02T11:06:32.171Z,18.70
2018-10-02T11:09:01.246Z,18.90
2018-10-02T11:11:30.283Z,19.10
2018-10-02T11:13:59.376Z,19.00
2018-10-02T11:16:28.423Z,19.50
2018-10-02T11:18:57.513Z,20.30
2018-10-02T11:21:26.548Z,19.50
2018-10-02T11:23:55.671Z,19.40
2018-10-02T11:26:24.708Z,19.80
2018-10-02T11:28:53.918Z,20.10
2018-10-02T11:31:23.146Z,20.20
2018-10-02T11:33:52.147Z,20.40
2018-10-02T11:36:21.198Z,20.40
2018-10-02T11:38:50.450Z,20.40
2018-10-02T11:41:19.543Z,20.10
2018-10-02T11:43:48.721Z,20.10
2018-10-02T11:46:17.698Z,20.00
2018-10-02T11:48:46.758Z,20.10
2018-10-02T11:51:15.866Z,19.90
2018-10-02T11:53:44.954Z,19.50
2018-10-02T11:56:14.017Z,19.00
2018-10-02T11:58:43.105Z,19.00
2018-10-02T12:01:12.317Z,18.70
2018-10-02T12:03:41.337Z,19.20
2018-10-02T12:06:10.409Z,19.10
2018-10-02T12:08:39.535Z,18.40
2018-10-02T12:11:08.599Z,18.00
2018-10-02T12:13:37.775Z,17.60
2018-10-02T12:16:06.856Z,17.40
2018-10-02T12:18:35.939Z,17.60
2018-10-02T12:21:05.173Z,17.60
2018-10-02T12:23:34.270Z,17.80
2018-10-02T12:26:03.335Z,17.50
2018-10-02T12:28:32.399Z,17.10
2018-10-02T12:31:01.464Z,16.90
2018-10-02T12:33:30.526Z,16.70
2018-10-02T12:35:59.583Z,16.40
2018-10-02T12:38:28.784Z,16.40
2018-10-02T12:40:57.892Z,16.30
2018-10-02T12:43:26.939Z,16.00
2018-10-02T12:45:56.011Z,16.00
2018-10-02T12:48:25.245Z,16.10
2018-10-02T12:50:54.388Z,16.20
2018-10-02T12:53:23.541Z,16.30
2018-10-02T12:55:53.217Z,16.20
2018-10-02T12:58:22.348Z,16.00
2018-10-02T13:00:51.472Z,15.80
2018-10-02T13:03:20.559Z,15.60
2018-10-02T13:05:50.255Z,15.70
2018-10-02T13:08:19.308Z,15.60
2018-10-02T13:10:48.394Z,15.40
2018-10-02T13:13:17.508Z,15.30
2018-10-02T13:15:46.547Z,15.10
2018-10-02T13:18:15.723Z,15.20
2018-10-02T13:20:44.799Z,15.30
2018-10-02T13:23:13.846Z,15.40
2018-10-02T13:25:42.934Z,15.60
2018-10-02T13:28:12.011Z,15.50
2018-10-02T13:30:41.085Z,15.50
2018-10-02T13:33:10.127Z,15.40
2018-10-02T13:35:39.198Z,15.30
2018-10-02T13:38:08.360Z,15.20
2018-10-02T13:40:37.435Z,15.30
2018-10-02T13:43:06.539Z,15.20
2018-10-02T13:45:35.635Z,15.00
2018-10-02T13:48:04.700Z,14.90
2018-10-02T13:50:33.893Z,15.00
2018-10-02T13:53:02.895Z,14.90
2018-10-02T13:55:31.957Z,14.70
2018-10-02T13:58:01.259Z,14.80
2018-10-02T14:00:30.343Z,15.00
2018-10-02T14:02:59.630Z,15.20
2018-10-02T14:05:28.726Z,15.30
2018-10-02T14:07:57.852Z,15.20
2018-10-02T14:10:26.935Z,15.20
2018-10-02T14:12:56.015Z,15.30
2018-10-02T14:15:25.179Z,15.00
2018-10-02T14:17:54.210Z,15.10
2018-10-02T14:20:23.299Z,14.80
2018-10-02T14:22:52.602Z,14.80
2018-10-02T14:25:21.673Z,14.80
2018-10-02T14:27:50.750Z,14.70
2018-10-02T14:30:19.834Z,14.80
2018-10-02T14:32:48.922Z,14.60
2018-10-02T14:35:17.967Z,14.50
2018-10-02T14:37:47.103Z,14.40
2018-10-02T14:40:17.615Z,14.50
2018-10-02T14:42:46.763Z,14.50
2018-10-02T14:45:15.926Z,14.60
2018-10-02T14:47:45.175Z,14.60
2018-10-02T14:50:14.287Z,14.40
2018-10-02T14:52:43.443Z,14.30
2018-10-02T14:55:12.579Z,14.40
2018-10-02T14:57:41.735Z,14.40
2018-10-02T15:00:10.856Z,14.40
2018-10-02T15:02:39.979Z,14.30
2018-10-02T15:05:09.114Z,14.30
2018-10-02T15:07:38.242Z,14.20
2018-10-02T15:10:07.387Z,14.20
2018-10-02T15:12:36.530Z,14.10
2018-10-02T15:15:06.074Z,14.10
2018-10-02T15:17:35.208Z,14.00
2018-10-02T15:20:04.479Z,14.00
2018-10-02T15:22:33.617Z,14.00
2018-10-02T15:25:02.734Z,13.90
2018-10-02T15:27:31.887Z,13.90
2018-10-02T15:30:01.075Z,13.80
2018-10-02T15:32:30.197Z,13.80
2018-10-02T15:34:59.302Z,13.80
2018-10-02T15:37:28.465Z,13.80
2018-10-02T15:39:57.639Z,13.90
2018-10-02T15:42:26.813Z,13.80
2018-10-02T15:44:55.834Z,13.80
2018-10-02T15:47:25.083Z,13.70
2018-10-02T15:49:54.165Z,13.70
2018-10-02T15:52:23.235Z,13.70
2018-10-02T15:54:52.294Z,13.70
2018-10-02T15:57:21.510Z,13.70
2018-10-02T15:59:50.599Z,13.70
2018-10-02T16:02:19.675Z,13.60
2018-10-02T16:04:48.746Z,13.60
2018-10-02T16:07:17.924Z,13.50
2018-10-02T16:09:46.987Z,13.40
2018-10-02T16:12:16.034Z,13.40
2018-10-02T16:14:45.107Z,13.50
2018-10-02T16:17:14.178Z,13.30
2018-10-02T16:19:43.259Z,13.20
2018-10-02T16:22:12.321Z,13.30
2018-10-02T16:24:41.394Z,13.20
2018-10-02T16:27:10.603Z,13.30
2018-10-02T16:29:39.678Z,13.30
2018-10-02T16:32:08.781Z,13.20
2018-10-02T16:34:48.980Z,13.20
2018-10-02T16:37:06.968Z,13.20
2018-10-02T16:39:36.042Z,13.10
2018-10-02T16:42:05.208Z,13.10
2018-10-02T16:44:34.343Z,13.00
2018-10-02T16:47:03.573Z,13.00
2018-10-02T16:49:32.757Z,13.10
2018-10-02T16:52:01.856Z,13.00
2018-10-02T16:54:31.020Z,13.00
2018-10-02T16:57:00.128Z,13.00
2018-10-02T16:59:29.250Z,13.00
2018-10-02T17:01:58.391Z,13.00
2018-10-02T17:04:27.523Z,13.00
2018-10-02T17:06:56.809Z,13.00
2018-10-02T17:09:25.954Z,13.00
2018-10-02T17:11:55.076Z,13.00
2018-10-02T17:14:24.231Z,12.90
2018-10-02T17:16:53.418Z,12.90
2018-10-02T17:19:23.088Z,12.90
2018-10-02T17:21:52.407Z,12.90
2018-10-02T17:24:21.551Z,13.10
2018-10-02T17:26:50.668Z,13.00
2018-10-02T17:29:24.440Z,12.90
2018-10-02T17:31:54.799Z,12.90
2018-10-02T17:34:26.040Z,12.90
2018-10-02T17:36:56.268Z,12.90
2018-10-02T17:39:27.677Z,12.90
2018-10-02T17:41:56.894Z,12.80
2018-10-02T17:44:26.696Z,12.90
2018-10-02T17:46:56.074Z,12.80
2018-10-02T17:49:25.487Z,12.80
2018-10-02T17:51:55.515Z,12.90
2018-10-02T17:54:26.019Z,12.80
2018-10-02T17:56:55.226Z,12.90
2018-10-02T17:59:24.339Z,13.00
2018-10-02T18:01:53.426Z,12.90
2018-10-02T18:04:22.474Z,12.90
2018-10-02T18:06:51.623Z,12.70
2018-10-02T18:09:20.669Z,12.70
2018-10-02T18:11:49.747Z,12.60
2018-10-02T18:14:18.798Z,12.50
2018-10-02T18:16:47.853Z,12.50
2018-10-02T18:19:16.931Z,12.50
2018-10-02T18:21:46.010Z,12.50
2018-10-02T18:24:15.046Z,12.40
2018-10-02T18:26:44.134Z,12.40
2018-10-02T18:29:13.175Z,12.40
2018-10-02T18:31:42.263Z,12.40
2018-10-02T18:34:11.362Z,12.30
2018-10-02T18:36:40.566Z,12.20
2018-10-02T18:39:09.626Z,12.30
2018-10-02T18:41:38.784Z,12.30
2018-10-02T18:44:08.155Z,12.30
2018-10-02T18:46:37.655Z,12.30
2018-10-02T18:49:06.983Z,12.30
2018-10-02T18:51:36.101Z,12.30
2018-10-02T18:54:05.230Z,12.30
2018-10-02T18:56:34.470Z,12.40
2018-10-02T18:59:03.531Z,12.40
2018-10-02T19:01:32.855Z,12.40
2018-10-02T19:04:02.123Z,12.40
2018-10-02T19:06:31.303Z,12.40
2018-10-02T19:09:05.639Z,12.30
2018-10-02T19:11:40.231Z,12.40
2018-10-02T19:14:09.984Z,12.30
2018-10-02T19:16:39.158Z,12.30
2018-10-02T19:19:12.466Z,12.30
2018-10-02T19:21:41.604Z,12.30
2018-10-02T19:24:10.723Z,12.30
2018-10-02T19:26:39.962Z,12.50
2018-10-02T19:29:11.649Z,12.50
2018-10-02T19:31:48.502Z,12.40
2018-10-02T19:34:19.597Z,12.30
2018-10-02T19:36:51.801Z,12.30
2018-10-02T19:39:23.668Z,12.30
2018-10-02T19:41:56.242Z,12.30
2018-10-02T19:44:26.718Z,12.20
2018-10-02T19:47:00.535Z,12.20
2018-10-02T19:49:31.507Z,12.10
2018-10-02T19:52:02.471Z,12.10
2018-10-02T19:54:31.506Z,12.10
2018-10-02T19:57:00.583Z,12.10
2018-10-02T19:59:29.655Z,12.10
2018-10-02T20:01:58.731Z,12.10
2018-10-02T20:04:27.769Z,12.20
2018-10-02T20:06:57.110Z,12.20
2018-10-02T20:09:26.846Z,12.20
2018-10-02T20:11:55.916Z,12.20
2018-10-02T20:14:25.297Z,12.10
2018-10-02T20:16:54.870Z,12.30
2018-10-02T20:19:23.950Z,12.40
2018-10-02T20:21:53.682Z,12.30
2018-10-02T20:24:22.751Z,12.30
2018-10-02T20:26:51.810Z,12.30
2018-10-02T20:29:21.243Z,12.20
2018-10-02T20:31:51.723Z,12.20
2018-10-02T20:34:20.800Z,12.20
2018-10-02T20:36:49.880Z,12.10
2018-10-02T20:39:19.017Z,12.10
2018-10-02T20:41:48.105Z,12.10
2018-10-02T20:44:17.649Z,12.00
2018-10-02T20:46:46.724Z,11.90
2018-10-02T20:49:15.920Z,11.90
2018-10-02T20:51:45.810Z,11.90
2018-10-02T20:54:15.207Z,11.90
2018-10-02T20:56:44.425Z,11.90
2018-10-02T20:59:14.178Z,11.90
2018-10-02T21:01:43.231Z,11.80
2018-10-02T21:04:12.339Z,11.90
2018-10-02T21:06:41.622Z,11.80
2018-10-02T21:09:10.794Z,11.90
2018-10-02T21:11:39.953Z,11.80
2018-10-02T21:14:09.096Z,11.80
2018-10-02T21:16:38.532Z,11.90
2018-10-02T21:19:07.618Z,11.90
2018-10-02T21:21:36.694Z,11.90
2018-10-02T21:24:05.792Z,11.90
2018-10-02T21:26:34.948Z,12.00
2018-10-02T21:29:04.164Z,12.00
2018-10-02T21:31:33.272Z,12.00
2018-10-02T21:34:02.409Z,12.00
2018-10-02T21:36:31.540Z,12.20
2018-10-02T21:39:01.269Z,12.20
2018-10-02T21:41:30.374Z,12.20
2018-10-02T21:43:59.435Z,12.10
2018-10-02T21:46:29.171Z,12.10
2018-10-02T21:48:58.230Z,12.00
2018-10-02T21:51:27.293Z,12.00
2018-10-02T21:53:56.735Z,12.00
2018-10-02T21:56:25.836Z,12.10
2018-10-02T21:58:55.549Z,12.00
2018-10-02T22:01:28.979Z,12.00
2018-10-02T22:03:58.144Z,11.90
2018-10-02T22:06:27.186Z,11.80
2018-10-02T22:08:56.282Z,11.90
2018-10-02T22:11:25.355Z,11.80
2018-10-02T22:13:54.903Z,11.70
2018-10-02T22:16:23.998Z,11.70
2018-10-02T22:18:53.072Z,11.80
2018-10-02T22:21:22.250Z,11.70
2018-10-02T22:23:51.331Z,11.70
2018-10-02T22:26:20.422Z,11.70
2018-10-02T22:28:49.708Z,11.60
2018-10-02T22:31:18.785Z,11.60
2018-10-02T22:33:47.822Z,11.60
2018-10-02T22:36:16.891Z,11.50
2018-10-02T22:38:45.934Z,11.40
2018-10-02T22:41:15.035Z,11.40
2018-10-02T22:43:44.106Z,11.40
2018-10-02T22:46:13.183Z,11.30
2018-10-02T22:48:42.485Z,11.30
2018-10-02T22:51:11.604Z,11.30
2018-10-02T22:53:40.727Z,11.30
2018-10-02T22:56:09.914Z,11.50
2018-10-02T22:58:39.018Z,11.50
2018-10-02T23:01:08.219Z,11.50
2018-10-02T23:03:37.318Z,11.40
2018-10-02T23:06:07.072Z,11.40
2018-10-02T23:08:36.294Z,11.40
2018-10-02T23:11:05.978Z,11.40
2018-10-02T23:13:35.111Z,11.40
2018-10-02T23:16:04.486Z,11.40
2018-10-02T23:18:34.414Z,11.40
2018-10-02T23:21:03.573Z,11.50
2018-10-02T23:23:33.031Z,11.50
2018-10-02T23:26:04.683Z,11.60
2018-10-02T23:28:33.778Z,11.60
2018-10-02T23:31:02.907Z,11.60
2018-10-02T23:33:32.245Z,11.50
2018-10-02T23:36:01.808Z,11.50
2018-10-02T23:38:31.399Z,11.60
2018-10-02T23:41:00.612Z,11.60
2018-10-02T23:43:29.731Z,11.60
2018-10-02T23:45:58.908Z,11.60
2018-10-02T23:48:28.149Z,11.60
2018-10-02T23:50:57.320Z,11.80
2018-10-02T23:53:26.426Z,11.90
2018-10-02T23:55:56.124Z,11.80
2018-10-02T23:58:25.230Z,11.80
